Mahopac, NY (10541)

12:55 AM EDT on July 28, 2016 (GMT -0400)
Mahopac | | Change Station

Elev 823 ft 41.37 °N, 73.74 °W | Updated 24 minutes ago

Clear
Clear
72.7 °F
Feels Like 73 °F
N
0.0
Wind Variable Wind from SW
Gusts 0.0 mph

Today
High -- | Low -- °F
--% Chance of Precip.
Yesterday
High -- | Low -- °F
Precip. -- in
Pressure 29.92 in
Visibility 10.0 miles
Clouds Clear
Heat Index 73 °F
Dew Point 65 °F
Humidity 78%
Rainfall 0.00 in
Snow Depth Not available.
5:46 AM 8:15 PM
Waning Crescent, 36% visible
METAR KDXR 280353Z AUTO 00000KT 10SM CLR 22/18 A2993 RMK AO2 SLP131 T02220183
Pressure 29.92 in
Visibility 10.0 miles
Clouds Clear
Heat Index 73 °F
Dew Point 65 °F
Humidity 78%
Rainfall 0.00 in
Snow Depth Not available.
5:46 AM 8:15 PM
Waning Crescent, 36% visible
METAR KDXR 280353Z AUTO 00000KT 10SM CLR 22/18 A2993 RMK AO2 SLP131 T02220183

10-Day Weather Forecast

Almanac

Astronomy

Jul. 28, 2016 Rise Set
Actual Time
Civil Twilight
Nautical Twilight
Astronomical Twilight
Moon
Length of Visible Light
Length of Day
Tomorrow will be .
, % of the Moon is Illuminated

Today's Extremes

State Highs State Lows

Community

WunderPhotos

Upload Photos

1,928,061 photos uploaded!

WunderBlog® & News

Nearby

Air Quality

  Air Quality AQ Index Pollutant
Not available.

Snow Depth

Station Depth Elevation

Earthquake Activity

City Distance Mag. Time & Date
Minimum magnitude displayed is 2.5.

Coastal Water Temperatures

Place Temperature

Stations

Nearby Weather Stations

Station Location Temp. Windchill Dew Point Humidity Wind Precip. Elev Updated Type
                   

Watches & Warnings

There are currently no watches in effect.